Time;durP1;ratioP1;P1;durP2;ratioP2;P2;SDS_P1;SDS_P2;PMS_P1;PMS_P2;Temp;Humidity;BMP_temperature;BMP_pressure;BME280_temperature;BME280_humidity;BME280_pressure;Samples;Min_cycle;Max_cycle;Signal;HPM_P1;HPM_P2
2020/12/04 00:01:37;;;;;;;;;;;6.20;99.90;;;;;;4987826;28;19918;-85
2020/12/04 00:04:03;;;;;;;;;;;6.20;99.90;;;;;;4984822;28;19910;-87
2020/12/04 00:06:28;;;;;;;;;;;6.30;99.90;;;;;;4981082;28;19967;-87
2020/12/04 00:08:54;;;;;;;;;;;6.30;99.90;;;;;;4986114;28;19914;-77
2020/12/04 00:11:20;;;;;;;;;;;6.30;99.90;;;;;;4980329;28;19918;-86
2020/12/04 00:13:45;;;;;;;;;;;6.30;99.90;;;;;;4991297;28;19917;-86
2020/12/04 00:16:11;;;;;;;;;;;6.30;99.90;;;;;;4978847;28;19918;-87
2020/12/04 00:18:36;;;;;;;;;;;6.20;99.90;;;;;;4988805;28;20059;-84
2020/12/04 00:21:02;;;;;;;;;;;6.20;99.90;;;;;;4987214;28;19913;-86
2020/12/04 00:23:28;;;;;;;;;;;6.30;99.90;;;;;;4982586;28;19954;-85
2020/12/04 00:25:53;;;;;;;;;;;6.20;99.90;;;;;;4989990;28;19925;-87
2020/12/04 00:28:19;;;;;;;;;;;6.20;99.90;;;;;;4983176;28;19953;-86
2020/12/04 00:30:44;;;;;;;;;;;6.20;99.90;;;;;;4988434;28;19910;-86
2020/12/04 00:33:10;;;;;;;;;;;6.20;99.90;;;;;;4987736;28;19962;-87
2020/12/04 00:35:35;;;;;;;;;;;6.10;99.90;;;;;;4990591;28;19918;-86
2020/12/04 00:38:01;;;;;;;;;;;6.20;99.90;;;;;;4990679;28;19917;-86
2020/12/04 00:40:26;;;;;;;;;;;6.20;99.90;;;;;;4985155;28;19955;-85
2020/12/04 00:42:52;;;;;;;;;;;6.20;99.90;;;;;;4983865;28;19924;-87
2020/12/04 00:45:18;;;;;;;;;;;6.10;99.90;;;;;;4989683;28;19921;-86
2020/12/04 00:47:43;;;;;;;;;;;6.20;99.90;;;;;;4990623;28;19921;-86
2020/12/04 00:50:09;;;;;;;;;;;6.20;99.90;;;;;;4983095;28;20025;-87
2020/12/04 00:52:35;;;;;;;;;;;6.20;99.90;;;;;;4981375;28;19918;-86
2020/12/04 00:55:00;;;;;;;;;;;6.20;99.90;;;;;;4977453;28;19910;-86
2020/12/04 00:57:26;;;;;;;;;;;6.20;99.90;;;;;;4992705;28;20001;-86
2020/12/04 00:59:52;;;;;;;;;;;6.20;99.90;;;;;;4994095;28;19917;-84
2020/12/04 01:02:17;;;;;;;;;;;6.20;99.90;;;;;;4989967;28;19910;-86
2020/12/04 01:04:43;;;;;;;;;;;6.20;99.90;;;;;;4993808;28;19971;-86
2020/12/04 01:07:08;;;;;;;;;;;6.30;99.90;;;;;;4993531;28;19914;-86
2020/12/04 01:09:34;;;;;;;;;;;6.30;99.90;;;;;;4986342;28;19998;-85
2020/12/04 01:12:00;;;;;;;;;;;6.40;99.90;;;;;;4984895;28;20301;-84
2020/12/04 01:14:26;;;;;;;;;;;6.40;99.90;;;;;;4982825;28;19941;-84
2020/12/04 01:16:52;;;;;;;;;;;6.40;99.90;;;;;;4992150;28;19918;-87
2020/12/04 01:19:17;;;;;;;;;;;6.40;99.90;;;;;;4988272;28;19910;-86
2020/12/04 01:21:46;;;;;;;;;;;6.40;99.90;;;;;;4993533;28;19914;-86
2020/12/04 01:24:11;;;;;;;;;;;6.40;99.90;;;;;;4991035;28;20321;-87
2020/12/04 01:26:38;;;;;;;;;;;6.40;99.90;;;;;;4987153;28;19979;-86
2020/12/04 01:29:04;;;;;;;;;;;6.40;99.90;;;;;;4989977;28;19922;-87
2020/12/04 01:31:29;;;;;;;;;;;6.30;99.90;;;;;;4979938;28;19964;-86
2020/12/04 01:33:55;;;;;;;;;;;6.30;99.90;;;;;;4986858;28;19910;-83
2020/12/04 01:36:20;;;;;;;;;;;6.30;99.90;;;;;;4992357;28;19926;-86
2020/12/04 01:38:46;;;;;;;;;;;6.30;99.90;;;;;;4985491;28;19910;-86
2020/12/04 01:41:11;;;;;;;;;;;6.30;99.90;;;;;;4993220;28;19910;-86
2020/12/04 01:43:37;;;;;;;;;;;6.30;99.90;;;;;;4984118;28;19915;-86
2020/12/04 01:46:03;;;;;;;;;;;6.30;99.90;;;;;;4981170;28;19913;-84
2020/12/04 01:48:28;;;;;;;;;;;6.30;99.90;;;;;;4992672;28;20044;-86
2020/12/04 01:50:54;;;;;;;;;;;6.30;99.90;;;;;;4988676;28;19979;-87
2020/12/04 01:53:20;;;;;;;;;;;6.30;99.90;;;;;;4980372;28;19917;-87
2020/12/04 01:55:46;;;;;;;;;;;6.30;99.90;;;;;;4983018;28;19926;-86
2020/12/04 01:58:12;;;;;;;;;;;6.20;99.90;;;;;;4982092;28;20022;-85
2020/12/04 02:00:38;;;;;;;;;;;6.30;99.90;;;;;;4986797;28;19910;-83
2020/12/04 02:03:04;;;;;;;;;;;6.30;99.90;;;;;;4988076;28;20419;-85
2020/12/04 02:05:29;;;;;;;;;;;6.30;99.90;;;;;;4989861;28;19941;-84
2020/12/04 02:08:01;;;;;;;;;;;6.30;99.90;;;;;;4991150;28;20024;-82
2020/12/04 02:10:33;;;;;;;;;;;6.30;99.90;;;;;;4992535;28;19928;-84
2020/12/04 02:13:00;;;;;;;;;;;6.30;99.90;;;;;;4984098;28;19918;-86
2020/12/04 02:15:25;;;;;;;;;;;6.40;99.90;;;;;;4987099;28;19941;-86
2020/12/04 02:17:56;;;;;;;;;;;6.30;99.90;;;;;;4989353;28;19914;-86
2020/12/04 02:20:21;;;;;;;;;;;6.30;99.90;;;;;;4992934;28;19937;-87
2020/12/04 02:22:47;;;;;;;;;;;6.40;99.90;;;;;;4992119;28;19937;-86
2020/12/04 02:25:13;;;;;;;;;;;6.40;99.90;;;;;;4992507;28;19945;-86
2020/12/04 02:27:46;;;;;;;;;;;6.40;99.90;;;;;;4992624;28;19966;-85
2020/12/04 02:30:14;;;;;;;;;;;6.40;99.90;;;;;;4979662;28;19909;-86
2020/12/04 02:32:40;;;;;;;;;;;6.40;99.90;;;;;;4992533;28;19987;-87
2020/12/04 02:35:05;;;;;;;;;;;6.50;99.90;;;;;;4981105;28;19953;-80
2020/12/04 02:37:31;;;;;;;;;;;6.50;99.90;;;;;;4992368;28;19934;-85
2020/12/04 02:39:56;;;;;;;;;;;6.50;99.90;;;;;;4983425;28;19914;-85
2020/12/04 02:42:22;;;;;;;;;;;6.50;99.90;;;;;;4992196;28;19917;-85
2020/12/04 02:44:47;;;;;;;;;;;6.50;99.90;;;;;;4992057;28;19914;-85
2020/12/04 02:47:13;;;;;;;;;;;6.50;99.90;;;;;;4991673;28;19913;-85
2020/12/04 02:49:38;;;;;;;;;;;6.50;99.90;;;;;;4989096;28;20406;-87
2020/12/04 02:52:04;;;;;;;;;;;6.50;99.90;;;;;;4991362;28;19913;-86
2020/12/04 02:54:29;;;;;;;;;;;6.50;99.90;;;;;;4991183;28;19956;-85
2020/12/04 02:56:55;;;;;;;;;;;6.50;99.90;;;;;;4991043;28;19918;-86
2020/12/04 02:59:21;;;;;;;;;;;6.50;99.90;;;;;;4991027;28;19913;-85
2020/12/04 03:01:46;;;;;;;;;;;6.50;99.90;;;;;;4991154;28;19988;-84
2020/12/04 03:04:12;;;;;;;;;;;6.50;99.90;;;;;;4988174;28;19919;-85
2020/12/04 03:06:37;;;;;;;;;;;6.40;99.90;;;;;;4988851;28;20429;-79
2020/12/04 03:09:03;;;;;;;;;;;6.50;99.90;;;;;;4991718;28;19963;-84
2020/12/04 03:11:29;;;;;;;;;;;6.50;99.90;;;;;;4991376;28;19960;-84
2020/12/04 03:13:54;;;;;;;;;;;6.50;99.90;;;;;;4991414;28;19956;-86
2020/12/04 03:16:20;;;;;;;;;;;6.50;99.90;;;;;;4991279;28;20416;-85
2020/12/04 03:18:45;;;;;;;;;;;6.50;99.90;;;;;;4991097;28;20433;-85
2020/12/04 03:21:11;;;;;;;;;;;6.50;99.90;;;;;;4991571;28;19914;-83
2020/12/04 03:23:37;;;;;;;;;;;6.50;99.90;;;;;;4986890;28;19921;-85
2020/12/04 03:26:02;;;;;;;;;;;6.50;99.90;;;;;;4991284;28;19910;-86
2020/12/04 03:28:28;;;;;;;;;;;6.50;99.90;;;;;;4990493;28;20349;-86
2020/12/04 03:30:53;;;;;;;;;;;6.50;99.90;;;;;;4990972;28;19914;-87
2020/12/04 03:33:19;;;;;;;;;;;6.50;99.90;;;;;;4991162;28;20017;-85
2020/12/04 03:35:45;;;;;;;;;;;6.50;99.90;;;;;;4991542;28;20184;-85
2020/12/04 03:38:11;;;;;;;;;;;6.50;99.90;;;;;;4990973;28;20409;-85
2020/12/04 03:40:36;;;;;;;;;;;6.40;99.90;;;;;;4991261;28;19936;-86
2020/12/04 03:43:02;;;;;;;;;;;6.40;99.90;;;;;;4991384;28;19963;-81
2020/12/04 03:45:27;;;;;;;;;;;6.40;99.90;;;;;;4981847;28;20371;-84
2020/12/04 03:47:53;;;;;;;;;;;6.30;99.90;;;;;;4991160;28;19914;-84
2020/12/04 03:50:19;;;;;;;;;;;6.30;99.90;;;;;;4991531;28;19910;-86
2020/12/04 03:52:44;;;;;;;;;;;6.20;99.90;;;;;;4991113;28;19917;-86
2020/12/04 03:55:10;;;;;;;;;;;6.20;99.90;;;;;;4991284;28;20418;-85
2020/12/04 03:57:35;;;;;;;;;;;6.20;99.90;;;;;;4991056;28;19922;-85
2020/12/04 04:00:01;;;;;;;;;;;6.20;99.90;;;;;;4990870;28;20000;-85
2020/12/04 04:02:27;;;;;;;;;;;6.20;99.90;;;;;;4991154;28;19910;-86
2020/12/04 04:04:53;;;;;;;;;;;6.30;99.90;;;;;;4991465;28;20013;-86
2020/12/04 04:07:18;;;;;;;;;;;6.30;99.90;;;;;;4990772;28;19917;-85
2020/12/04 04:09:44;;;;;;;;;;;6.30;99.90;;;;;;4990600;28;19921;-85
2020/12/04 04:12:09;;;;;;;;;;;6.30;99.90;;;;;;4990480;28;19913;-85
2020/12/04 04:14:35;;;;;;;;;;;6.30;99.90;;;;;;4990762;28;20285;-86
2020/12/04 04:17:01;;;;;;;;;;;6.40;99.90;;;;;;4990553;28;19925;-84
2020/12/04 04:19:26;;;;;;;;;;;6.40;99.90;;;;;;4990493;28;20355;-86
2020/12/04 04:21:53;;;;;;;;;;;6.40;99.90;;;;;;4991147;28;19910;-85
2020/12/04 04:24:18;;;;;;;;;;;6.30;99.90;;;;;;4990260;28;20008;-84
2020/12/04 04:26:45;;;;;;;;;;;6.40;99.90;;;;;;4990441;28;19972;-84
2020/12/04 04:29:10;;;;;;;;;;;6.30;99.90;;;;;;4989749;28;20270;-85
2020/12/04 04:31:36;;;;;;;;;;;6.40;99.90;;;;;;4988313;28;19910;-86
2020/12/04 04:34:01;;;;;;;;;;;6.40;99.90;;;;;;4990496;28;19914;-85
2020/12/04 04:36:27;;;;;;;;;;;6.40;99.90;;;;;;4990546;28;19918;-86
2020/12/04 04:38:52;;;;;;;;;;;6.40;99.90;;;;;;4990662;28;19914;-86
2020/12/04 04:41:18;;;;;;;;;;;6.40;99.90;;;;;;4990545;28;19910;-86
2020/12/04 04:43:44;;;;;;;;;;;6.40;99.90;;;;;;4990104;28;19910;-85
2020/12/04 04:46:31;;;;;;;;;;;6.30;99.90;;;;;;4990258;28;20003;-85
2020/12/04 04:48:58;;;;;;;;;;;6.30;99.90;;;;;;4988133;28;20366;-86
2020/12/04 04:51:24;;;;;;;;;;;6.30;99.90;;;;;;4990843;28;19914;-87
2020/12/04 04:53:57;;;;;;;;;;;6.30;99.90;;;;;;4990593;28;19917;-85
2020/12/04 04:56:23;;;;;;;;;;;6.30;99.90;;;;;;4988986;28;19922;-86
2020/12/04 04:58:49;;;;;;;;;;;6.30;99.90;;;;;;4990283;28;19921;-86
2020/12/04 05:01:15;;;;;;;;;;;6.30;99.90;;;;;;4990780;28;19914;-73
2020/12/04 05:03:40;;;;;;;;;;;6.30;99.90;;;;;;4991490;28;20001;-85
2020/12/04 05:06:06;;;;;;;;;;;6.30;99.90;;;;;;4990321;28;20379;-86
2020/12/04 05:08:31;;;;;;;;;;;6.30;99.90;;;;;;4985192;28;19946;-84
2020/12/04 05:11:07;;;;;;;;;;;6.30;99.90;;;;;;4985241;28;20223;-83
2020/12/04 05:13:33;;;;;;;;;;;6.30;99.90;;;;;;4987875;28;19945;-85
2020/12/04 05:15:58;;;;;;;;;;;6.30;99.90;;;;;;4987021;28;19977;-85
2020/12/04 05:18:24;;;;;;;;;;;6.30;99.90;;;;;;4986524;28;20377;-86
2020/12/04 05:20:51;;;;;;;;;;;6.30;99.90;;;;;;4985476;28;20003;-86
2020/12/04 05:23:16;;;;;;;;;;;6.30;99.90;;;;;;4988818;28;20014;-84
2020/12/04 05:25:46;;;;;;;;;;;6.20;99.90;;;;;;4979124;28;19957;-86
2020/12/04 05:28:15;;;;;;;;;;;6.20;99.90;;;;;;4987533;28;19910;-86
2020/12/04 05:30:41;;;;;;;;;;;6.20;99.90;;;;;;4989983;28;19917;-86
2020/12/04 05:33:07;;;;;;;;;;;6.20;99.90;;;;;;4990067;28;19967;-86
2020/12/04 05:35:33;;;;;;;;;;;6.20;99.90;;;;;;4990156;28;19918;-82
2020/12/04 05:38:09;;;;;;;;;;;6.20;99.90;;;;;;4990242;28;19922;-85
2020/12/04 05:40:35;;;;;;;;;;;6.10;99.90;;;;;;4990152;28;20004;-86
2020/12/04 05:43:01;;;;;;;;;;;6.10;99.90;;;;;;4993180;28;20366;-85
2020/12/04 05:45:27;;;;;;;;;;;6.00;99.90;;;;;;4993786;28;19910;-86
2020/12/04 05:47:52;;;;;;;;;;;6.00;99.90;;;;;;4993347;28;19991;-87
2020/12/04 05:50:18;;;;;;;;;;;5.90;99.90;;;;;;4990779;28;20016;-82
2020/12/04 05:52:46;;;;;;;;;;;5.90;99.90;;;;;;4993248;28;20005;-84
2020/12/04 05:55:13;;;;;;;;;;;5.90;99.90;;;;;;4984707;28;20366;-81
2020/12/04 05:57:55;;;;;;;;;;;5.80;99.90;;;;;;4990374;28;19915;-86
2020/12/04 06:00:21;;;;;;;;;;;5.80;99.90;;;;;;4993047;28;20370;-86
2020/12/04 06:03:00;;;;;;;;;;;5.80;99.90;;;;;;4992123;28;19921;-84
2020/12/04 06:05:26;;;;;;;;;;;5.80;99.90;;;;;;4984357;28;19976;-86
2020/12/04 06:08:02;;;;;;;;;;;5.90;99.90;;;;;;4987621;28;20476;-86
2020/12/04 06:10:29;;;;;;;;;;;5.90;99.90;;;;;;4989745;28;20387;-86
2020/12/04 06:12:55;;;;;;;;;;;5.90;99.90;;;;;;4992571;28;19956;-87
2020/12/04 06:15:23;;;;;;;;;;;5.90;99.90;;;;;;4985278;28;19957;-86
2020/12/04 06:17:49;;;;;;;;;;;5.90;99.90;;;;;;4993153;28;19967;-84
2020/12/04 06:20:21;;;;;;;;;;;6.00;99.90;;;;;;4993358;28;19922;-86
2020/12/04 06:23:14;;;;;;;;;;;6.00;99.90;;;;;;4991155;28;19918;-83
2020/12/04 06:25:58;;;;;;;;;;;6.10;99.90;;;;;;4982740;28;19918;-79
2020/12/04 06:28:25;;;;;;;;;;;6.10;99.90;;;;;;4984877;28;20403;-81
2020/12/04 06:31:02;;;;;;;;;;;6.10;99.90;;;;;;4985030;28;19913;-80
2020/12/04 06:33:31;;;;;;;;;;;6.10;99.90;;;;;;4986536;28;19922;-80
2020/12/04 06:35:57;;;;;;;;;;;6.10;99.90;;;;;;4988240;28;19925;-80
2020/12/04 06:38:35;;;;;;;;;;;6.20;99.90;;;;;;4986203;28;20329;-79
2020/12/04 06:41:19;;;;;;;;;;;6.20;99.90;;;;;;4983586;28;20418;-80
2020/12/04 06:43:46;;;;;;;;;;;6.20;99.90;;;;;;4986200;28;19918;-79
2020/12/04 06:46:30;;;;;;;;;;;6.20;99.90;;;;;;4986427;28;19936;-79
2020/12/04 06:52:08;;;;;;;;;;;6.20;99.90;;;;;;4989053;28;19956;-80
2020/12/04 06:54:35;;;;;;;;;;;6.20;99.90;;;;;;4984187;28;21912;-80
2020/12/04 06:57:00;;;;;;;;;;;6.20;99.90;;;;;;4986763;28;19964;-78
2020/12/04 06:59:28;;;;;;;;;;;6.30;99.90;;;;;;4990230;28;19945;-78
2020/12/04 07:02:12;;;;;;;;;;;6.30;99.90;;;;;;4986673;28;19937;-80
2020/12/04 07:04:39;;;;;;;;;;;6.30;99.90;;;;;;4988792;28;19914;-79
2020/12/04 07:07:05;;;;;;;;;;;6.40;99.90;;;;;;4989249;28;19941;-80
2020/12/04 07:09:31;;;;;;;;;;;6.50;99.90;;;;;;4987727;28;20269;-77
2020/12/04 07:11:58;;;;;;;;;;;6.50;99.90;;;;;;4989688;28;19910;-79
2020/12/04 07:14:24;;;;;;;;;;;6.50;99.90;;;;;;4985737;28;20021;-79
2020/12/04 07:16:49;;;;;;;;;;;6.60;99.90;;;;;;4987313;28;19983;-80
2020/12/04 07:19:15;;;;;;;;;;;6.60;99.90;;;;;;4987021;28;19971;-78
2020/12/04 07:21:41;;;;;;;;;;;6.60;99.90;;;;;;4988684;28;19914;-78
2020/12/04 07:24:07;;;;;;;;;;;6.60;99.90;;;;;;4988544;28;19928;-80
2020/12/04 07:26:33;;;;;;;;;;;6.70;99.90;;;;;;4988089;28;20369;-80
2020/12/04 07:28:58;;;;;;;;;;;6.70;99.90;;;;;;4988531;28;19925;-80
2020/12/04 07:31:24;;;;;;;;;;;6.80;99.90;;;;;;4987900;28;20009;-80
2020/12/04 07:34:00;;;;;;;;;;;6.80;99.90;;;;;;4989463;28;19914;-78
2020/12/04 07:36:27;;;;;;;;;;;6.80;99.90;;;;;;4989364;28;19922;-78
2020/12/04 07:38:59;;;;;;;;;;;6.90;99.90;;;;;;4989639;28;19961;-79
2020/12/04 07:41:39;;;;;;;;;;;6.90;99.90;;;;;;4989141;28;20008;-79
2020/12/04 07:44:05;;;;;;;;;;;6.90;99.90;;;;;;4987139;28;20456;-79
2020/12/04 07:46:31;;;;;;;;;;;7.00;99.90;;;;;;4987952;28;19917;-78
2020/12/04 07:49:16;;;;;;;;;;;7.00;99.90;;;;;;4987484;28;19932;-80
2020/12/04 07:51:42;;;;;;;;;;;7.10;99.90;;;;;;4988564;28;19914;-79
2020/12/04 07:54:20;;;;;;;;;;;7.10;99.90;;;;;;4983532;28;19920;-80
2020/12/04 07:56:49;;;;;;;;;;;7.10;99.90;;;;;;4986219;28;19929;-76
2020/12/04 07:59:16;;;;;;;;;;;7.20;99.90;;;;;;4988589;28;19914;-80
2020/12/04 08:01:41;;;;;;;;;;;7.20;99.90;;;;;;4987335;28;19913;-80
2020/12/04 08:04:10;;;;;;;;;;;7.30;99.90;;;;;;4981619;28;19914;-85
2020/12/04 08:06:36;;;;;;;;;;;7.30;99.90;;;;;;4989725;28;19935;-83
2020/12/04 08:09:08;;;;;;;;;;;7.30;99.90;;;;;;4986161;28;20005;-80
2020/12/04 08:11:36;;;;;;;;;;;7.30;99.90;;;;;;4980428;28;19914;-81
2020/12/04 08:14:02;;;;;;;;;;;7.30;99.90;;;;;;4992269;28;19945;-80
2020/12/04 08:16:28;;;;;;;;;;;7.40;99.90;;;;;;4981688;28;19922;-79
2020/12/04 08:18:53;;;;;;;;;;;7.40;99.90;;;;;;4992481;28;20278;-81
2020/12/04 08:21:19;;;;;;;;;;;7.40;99.90;;;;;;4986497;28;20371;-81
2020/12/04 08:23:53;;;;;;;;;;;7.50;99.90;;;;;;4987611;28;19922;-82
2020/12/04 08:26:18;;;;;;;;;;;7.50;99.90;;;;;;4985681;28;19913;-79
2020/12/04 08:28:51;;;;;;;;;;;7.60;99.90;;;;;;4986206;28;19936;-82
2020/12/04 08:31:24;;;;;;;;;;;7.60;99.90;;;;;;4986819;28;20012;-80
2020/12/04 08:33:49;;;;;;;;;;;7.60;99.90;;;;;;4987018;28;19910;-80
2020/12/04 08:36:15;;;;;;;;;;;7.60;99.90;;;;;;4983369;28;20313;-78
2020/12/04 08:38:50;;;;;;;;;;;7.70;99.90;;;;;;4984201;28;19910;-78
2020/12/04 08:41:16;;;;;;;;;;;7.70;99.90;;;;;;4987199;28;19953;-79
2020/12/04 08:43:42;;;;;;;;;;;7.80;99.90;;;;;;4982870;28;19956;-81
2020/12/04 08:46:11;;;;;;;;;;;7.90;99.90;;;;;;4986198;28;19909;-81
2020/12/04 08:48:37;;;;;;;;;;;7.90;99.90;;;;;;4983461;28;19913;-79
2020/12/04 08:51:04;;;;;;;;;;;7.90;99.90;;;;;;4986646;28;19936;-79
2020/12/04 08:53:29;;;;;;;;;;;8.00;99.90;;;;;;4984883;28;19963;-80
2020/12/04 08:55:56;;;;;;;;;;;8.00;99.90;;;;;;4984533;28;19914;-80
2020/12/04 08:58:23;;;;;;;;;;;8.00;99.90;;;;;;4988694;28;19955;-80
2020/12/04 09:00:49;;;;;;;;;;;8.10;99.90;;;;;;4984944;28;19909;-80
2020/12/04 09:03:16;;;;;;;;;;;8.20;99.90;;;;;;4983877;28;19914;-81
2020/12/04 09:05:41;;;;;;;;;;;8.20;99.90;;;;;;4984066;28;19914;-80
2020/12/04 09:08:07;;;;;;;;;;;8.30;99.90;;;;;;4982803;28;20382;-79
2020/12/04 09:10:34;;;;;;;;;;;8.20;99.90;;;;;;4983229;28;20009;-82
2020/12/04 09:13:00;;;;;;;;;;;8.10;99.90;;;;;;4984939;28;19913;-80
2020/12/04 09:15:26;;;;;;;;;;;8.10;99.90;;;;;;4988760;28;20371;-84
2020/12/04 09:17:52;;;;;;;;;;;8.10;99.90;;;;;;4989669;28;20010;-79
2020/12/04 09:20:17;;;;;;;;;;;8.10;99.90;;;;;;4979698;28;20002;-84
2020/12/04 09:22:46;;;;;;;;;;;8.20;99.90;;;;;;4991761;28;19926;-86
2020/12/04 09:25:12;;;;;;;;;;;8.30;99.90;;;;;;4986661;28;19917;-80
2020/12/04 09:27:38;;;;;;;;;;;8.40;99.90;;;;;;4991275;28;19933;-82
2020/12/04 09:30:04;;;;;;;;;;;8.60;99.90;;;;;;4990414;28;20362;-80
2020/12/04 09:32:30;;;;;;;;;;;8.80;99.90;;;;;;4987912;28;20004;-81
2020/12/04 09:34:56;;;;;;;;;;;8.90;99.90;;;;;;4989533;28;20594;-74
2020/12/04 09:37:21;;;;;;;;;;;9.20;99.90;;;;;;4986171;28;19921;-81
2020/12/04 09:39:48;;;;;;;;;;;9.50;99.90;;;;;;4983572;28;19924;-81
2020/12/04 09:42:15;;;;;;;;;;;9.70;99.90;;;;;;4989358;28;19925;-82
2020/12/04 09:44:41;;;;;;;;;;;9.90;99.90;;;;;;4990886;28;19975;-80
2020/12/04 09:47:06;;;;;;;;;;;10.00;99.90;;;;;;4991003;28;20332;-82
2020/12/04 09:49:32;;;;;;;;;;;10.20;99.90;;;;;;4984171;28;19921;-80
2020/12/04 09:51:58;;;;;;;;;;;10.30;99.90;;;;;;4989596;28;19910;-81
2020/12/04 09:54:26;;;;;;;;;;;10.30;99.90;;;;;;4985986;28;19955;-79
2020/12/04 09:56:53;;;;;;;;;;;10.30;99.90;;;;;;4988178;28;19922;-80
2020/12/04 09:59:19;;;;;;;;;;;10.20;99.90;;;;;;4989632;28;19918;-81
2020/12/04 10:01:46;;;;;;;;;;;10.30;99.90;;;;;;4987455;28;19920;-82
2020/12/04 10:04:12;;;;;;;;;;;10.30;99.90;;;;;;4985809;28;20008;-80
2020/12/04 10:06:38;;;;;;;;;;;10.30;99.90;;;;;;4989736;28;20005;-78
2020/12/04 10:09:04;;;;;;;;;;;10.20;99.90;;;;;;4987568;28;20259;-76
2020/12/04 10:11:29;;;;;;;;;;;10.10;99.90;;;;;;4983678;28;19959;-78
2020/12/04 10:13:55;;;;;;;;;;;10.00;99.90;;;;;;4984118;28;20019;-81
2020/12/04 10:16:20;;;;;;;;;;;10.00;99.90;;;;;;4984453;28;19934;-79
2020/12/04 10:18:46;;;;;;;;;;;10.00;99.90;;;;;;4986299;28;20028;-80
2020/12/04 10:21:12;;;;;;;;;;;10.00;99.90;;;;;;4989420;28;19921;-80
2020/12/04 10:23:37;;;;;;;;;;;10.00;99.90;;;;;;4987233;28;20463;-83
2020/12/04 10:26:03;;;;;;;;;;;10.00;99.90;;;;;;4986802;28;19917;-84
2020/12/04 10:28:32;;;;;;;;;;;9.90;99.90;;;;;;4979213;28;19914;-77
2020/12/04 10:30:58;;;;;;;;;;;9.80;99.90;;;;;;4985590;28;19971;-81
2020/12/04 10:33:24;;;;;;;;;;;9.80;99.90;;;;;;4989300;28;19917;-81
2020/12/04 10:35:50;;;;;;;;;;;9.80;99.90;;;;;;4987622;28;19925;-81
2020/12/04 10:38:15;;;;;;;;;;;9.90;99.90;;;;;;4984512;28;19937;-77
2020/12/04 10:40:41;;;;;;;;;;;9.90;99.90;;;;;;4987067;28;19914;-77
2020/12/04 10:43:06;;;;;;;;;;;10.00;99.90;;;;;;4987724;28;20519;-79
2020/12/04 10:45:32;;;;;;;;;;;10.10;99.90;;;;;;4988372;28;20000;-80
2020/12/04 10:47:57;;;;;;;;;;;10.20;99.90;;;;;;4986404;28;19928;-81
2020/12/04 10:50:23;;;;;;;;;;;10.40;99.90;;;;;;4989235;28;19913;-81
2020/12/04 10:52:49;;;;;;;;;;;10.60;99.90;;;;;;4988914;28;19921;-83
2020/12/04 10:55:14;;;;;;;;;;;10.70;99.90;;;;;;4986520;28;20613;-79
2020/12/04 10:57:40;;;;;;;;;;;10.80;99.90;;;;;;4989155;28;20013;-79
2020/12/04 11:00:05;;;;;;;;;;;10.80;99.90;;;;;;4985433;28;20311;-80
2020/12/04 11:02:34;;;;;;;;;;;10.90;99.90;;;;;;4987595;28;19956;-76
2020/12/04 11:07:44;;;;;;;;;;;10.80;99.90;;;;;;4980014;28;20021;-79
2020/12/04 11:10:10;;;;;;;;;;;10.80;99.90;;;;;;4989002;28;20438;-80
2020/12/04 11:12:35;;;;;;;;;;;10.70;99.90;;;;;;4990683;28;19956;-80
2020/12/04 11:15:01;;;;;;;;;;;10.60;99.90;;;;;;4984986;28;19921;-76
2020/12/04 11:17:26;;;;;;;;;;;10.60;99.90;;;;;;4983456;28;20576;-82
2020/12/04 11:19:52;;;;;;;;;;;10.50;99.90;;;;;;4986479;28;19968;-79
2020/12/04 11:22:18;;;;;;;;;;;10.50;99.90;;;;;;4989222;28;19914;-76
2020/12/04 11:24:44;;;;;;;;;;;10.50;99.90;;;;;;4988184;28;19940;-80
2020/12/04 11:27:10;;;;;;;;;;;10.40;99.90;;;;;;4987156;28;19914;-77
2020/12/04 11:29:35;;;;;;;;;;;10.40;99.90;;;;;;4985433;28;19914;-81
2020/12/04 11:32:01;;;;;;;;;;;10.30;99.90;;;;;;4988162;28;19961;-80
2020/12/04 11:34:26;;;;;;;;;;;10.30;99.90;;;;;;4990162;28;19917;-81
2020/12/04 11:36:52;;;;;;;;;;;10.20;99.90;;;;;;4984700;28;19921;-84
2020/12/04 11:39:18;;;;;;;;;;;10.20;99.90;;;;;;4987437;28;19914;-80
2020/12/04 11:41:43;;;;;;;;;;;10.20;99.90;;;;;;4987172;28;19918;-85
2020/12/04 11:44:09;;;;;;;;;;;10.10;99.90;;;;;;4984705;28;20378;-77
2020/12/04 11:46:34;;;;;;;;;;;10.10;99.90;;;;;;4986796;28;20036;-81
2020/12/04 11:49:00;;;;;;;;;;;10.10;99.90;;;;;;4986998;28;20397;-79
2020/12/04 11:51:25;;;;;;;;;;;10.00;99.90;;;;;;4988130;28;19914;-82
2020/12/04 11:53:51;;;;;;;;;;;9.90;99.90;;;;;;4989346;28;19913;-81
2020/12/04 11:56:19;;;;;;;;;;;9.90;99.90;;;;;;4988788;28;20404;-78
2020/12/04 11:58:45;;;;;;;;;;;9.90;99.90;;;;;;4988060;28;19922;-81
2020/12/04 12:01:10;;;;;;;;;;;10.00;99.90;;;;;;4987115;28;20415;-77
2020/12/04 12:03:36;;;;;;;;;;;10.10;99.90;;;;;;4987930;28;19959;-80
2020/12/04 12:06:01;;;;;;;;;;;10.10;99.90;;;;;;4986100;28;20409;-75
2020/12/04 12:08:27;;;;;;;;;;;10.20;99.90;;;;;;4988843;28;19917;-81
2020/12/04 12:10:53;;;;;;;;;;;10.40;99.90;;;;;;4984932;28;19914;-80
2020/12/04 12:13:19;;;;;;;;;;;10.60;99.90;;;;;;4983736;28;19914;-80
2020/12/04 12:15:44;;;;;;;;;;;10.70;99.90;;;;;;4986211;28;19918;-80
2020/12/04 12:18:10;;;;;;;;;;;10.70;99.90;;;;;;4987656;28;20012;-82
2020/12/04 12:20:35;;;;;;;;;;;10.80;99.90;;;;;;4988027;28;19913;-78
2020/12/04 12:23:01;;;;;;;;;;;10.90;99.90;;;;;;4988449;28;19924;-80
2020/12/04 12:25:27;;;;;;;;;;;11.00;99.90;;;;;;4988415;28;19914;-78
2020/12/04 12:27:52;;;;;;;;;;;10.90;99.90;;;;;;4986536;28;19929;-81
2020/12/04 12:30:19;;;;;;;;;;;10.90;99.90;;;;;;4985394;28;20204;-80
2020/12/04 12:32:45;;;;;;;;;;;10.90;99.90;;;;;;4983217;28;20385;-80
2020/12/04 12:35:13;;;;;;;;;;;11.00;99.90;;;;;;4986531;28;19914;-82
2020/12/04 12:37:39;;;;;;;;;;;11.00;99.90;;;;;;4987372;28;19922;-80
2020/12/04 12:40:06;;;;;;;;;;;11.00;99.90;;;;;;4985780;28;19959;-81
2020/12/04 12:42:32;;;;;;;;;;;11.00;99.90;;;;;;4987936;28;19922;-79
2020/12/04 12:44:59;;;;;;;;;;;11.00;99.90;;;;;;4986957;28;19991;-80
2020/12/04 12:47:25;;;;;;;;;;;11.00;99.90;;;;;;4989561;28;19910;-82
2020/12/04 12:49:50;;;;;;;;;;;11.00;99.90;;;;;;4986692;28;19921;-77
2020/12/04 12:52:16;;;;;;;;;;;11.00;99.90;;;;;;4986417;28;20294;-78
2020/12/04 12:54:43;;;;;;;;;;;11.00;99.90;;;;;;4988502;28;19921;-77
2020/12/04 12:57:08;;;;;;;;;;;11.20;99.90;;;;;;4988735;28;19924;-78
2020/12/04 12:59:34;;;;;;;;;;;11.40;99.90;;;;;;4980730;28;19914;-78
2020/12/04 13:01:59;;;;;;;;;;;11.70;99.90;;;;;;4987064;28;19913;-78
2020/12/04 13:04:26;;;;;;;;;;;12.00;99.90;;;;;;4987841;28;19910;-79
2020/12/04 13:06:51;;;;;;;;;;;12.20;99.90;;;;;;4988438;28;19916;-77
2020/12/04 13:09:17;;;;;;;;;;;12.50;99.90;;;;;;4988641;28;19909;-77
2020/12/04 13:11:43;;;;;;;;;;;12.70;99.90;;;;;;4988263;28;19924;-78
2020/12/04 13:14:09;;;;;;;;;;;12.90;99.90;;;;;;4988365;28;19906;-78
2020/12/04 13:16:35;;;;;;;;;;;13.30;99.90;;;;;;4988563;28;20514;-76
2020/12/04 13:19:00;;;;;;;;;;;13.80;99.90;;;;;;4986788;28;19910;-77
2020/12/04 13:21:54;;;;;;;;;;;14.40;99.90;;;;;;4984471;28;19930;-78
2020/12/04 13:24:11;;;;;;;;;;;14.50;99.90;;;;;;4988404;28;19922;-77
2020/12/04 13:26:38;;;;;;;;;;;14.20;99.90;;;;;;4986903;28;20302;-78
2020/12/04 13:29:03;;;;;;;;;;;13.70;99.90;;;;;;4982584;28;19914;-78
2020/12/04 13:31:29;;;;;;;;;;;13.20;99.90;;;;;;4987060;28;20347;-78
2020/12/04 13:33:54;;;;;;;;;;;12.90;99.90;;;;;;4987928;28;19914;-79
2020/12/04 13:36:20;;;;;;;;;;;12.50;99.90;;;;;;4985043;28;20392;-78
2020/12/04 13:38:45;;;;;;;;;;;12.20;99.90;;;;;;4988445;28;20259;-79
2020/12/04 13:41:11;;;;;;;;;;;12.10;99.90;;;;;;4987865;28;19949;-77
2020/12/04 13:43:37;;;;;;;;;;;11.90;99.90;;;;;;4987746;28;19992;-80
2020/12/04 13:46:02;;;;;;;;;;;11.70;99.90;;;;;;4988336;28;19910;-77
2020/12/04 13:48:28;;;;;;;;;;;11.60;99.90;;;;;;4986797;28;19914;-76
2020/12/04 13:50:54;;;;;;;;;;;11.60;99.90;;;;;;4985376;28;19910;-77
2020/12/04 13:53:20;;;;;;;;;;;11.50;99.90;;;;;;4980259;28;20370;-78
2020/12/04 13:55:45;;;;;;;;;;;11.50;99.90;;;;;;4988220;28;20346;-77
2020/12/04 13:58:11;;;;;;;;;;;11.50;99.90;;;;;;4985062;28;19915;-76
2020/12/04 14:00:36;;;;;;;;;;;11.60;99.90;;;;;;4986158;28;19953;-77
2020/12/04 14:03:02;;;;;;;;;;;11.40;99.90;;;;;;4988449;28;19929;-77
2020/12/04 14:05:28;;;;;;;;;;;11.50;99.90;;;;;;4990627;28;20006;-77
2020/12/04 14:07:53;;;;;;;;;;;11.30;99.90;;;;;;4988763;28;19921;-77
2020/12/04 14:10:19;;;;;;;;;;;11.20;99.90;;;;;;4991099;28;20626;-76
2020/12/04 14:12:44;;;;;;;;;;;11.10;99.90;;;;;;4990954;28;19921;-77
2020/12/04 14:15:10;;;;;;;;;;;11.10;99.90;;;;;;4990707;28;20427;-77
2020/12/04 14:17:36;;;;;;;;;;;10.90;99.90;;;;;;4988867;28;20534;-78
2020/12/04 14:20:01;;;;;;;;;;;10.80;99.90;;;;;;4990840;28;19910;-76
2020/12/04 14:22:27;;;;;;;;;;;10.80;99.90;;;;;;4990735;28;19936;-76
2020/12/04 14:24:52;;;;;;;;;;;10.70;99.90;;;;;;4985941;28;19967;-77
2020/12/04 14:27:18;;;;;;;;;;;10.70;99.90;;;;;;4991341;28;20005;-76
2020/12/04 14:29:44;;;;;;;;;;;10.60;99.90;;;;;;4990333;28;19918;-77